sensor_id;sensor_type;location;lat;lon;timestamp;temperature;humidity
68865;DHT22;55898;52.196;4.420;2022-07-29T00:00:28;19.80;57.88
68865;DHT22;55898;52.196;4.420;2022-07-29T00:02:54;19.80;57.79
68865;DHT22;55898;52.196;4.420;2022-07-29T00:05:19;19.75;57.79
68865;DHT22;55898;52.196;4.420;2022-07-29T00:07:45;19.73;58.10
68865;DHT22;55898;52.196;4.420;2022-07-29T00:10:10;19.71;58.14
68865;DHT22;55898;52.196;4.420;2022-07-29T00:12:36;19.66;58.29
68865;DHT22;55898;52.196;4.420;2022-07-29T00:15:03;19.63;58.05
68865;DHT22;55898;52.196;4.420;2022-07-29T00:17:28;19.57;58.05
68865;DHT22;55898;52.196;4.420;2022-07-29T00:19:54;19.50;58.34
68865;DHT22;55898;52.196;4.420;2022-07-29T00:22:20;19.47;58.60
68865;DHT22;55898;52.196;4.420;2022-07-29T00:24:47;19.53;58.38
68865;DHT22;55898;52.196;4.420;2022-07-29T00:27:14;19.53;58.53
68865;DHT22;55898;52.196;4.420;2022-07-29T00:29:39;19.53;58.29
68865;DHT22;55898;52.196;4.420;2022-07-29T00:32:05;19.49;58.48
68865;DHT22;55898;52.196;4.420;2022-07-29T00:34:31;19.47;58.17
68865;DHT22;55898;52.196;4.420;2022-07-29T00:37:15;19.50;58.49
68865;DHT22;55898;52.196;4.420;2022-07-29T00:39:40;19.46;58.25
68865;DHT22;55898;52.196;4.420;2022-07-29T00:42:06;19.49;58.48
68865;DHT22;55898;52.196;4.420;2022-07-29T00:44:38;19.45;58.46
68865;DHT22;55898;52.196;4.420;2022-07-29T00:47:04;19.40;58.67
68865;DHT22;55898;52.196;4.420;2022-07-29T00:49:30;19.33;58.74
68865;DHT22;55898;52.196;4.420;2022-07-29T00:51:55;19.25;59.09
68865;DHT22;55898;52.196;4.420;2022-07-29T00:54:21;19.26;59.27
68865;DHT22;55898;52.196;4.420;2022-07-29T00:56:46;19.25;59.35
68865;DHT22;55898;52.196;4.420;2022-07-29T00:59:12;19.26;59.39
68865;DHT22;55898;52.196;4.420;2022-07-29T01:01:37;19.26;59.29
68865;DHT22;55898;52.196;4.420;2022-07-29T01:04:03;19.27;59.29
68865;DHT22;55898;52.196;4.420;2022-07-29T01:06:29;19.32;59.21
68865;DHT22;55898;52.196;4.420;2022-07-29T01:08:56;19.33;59.18
68865;DHT22;55898;52.196;4.420;2022-07-29T01:11:21;19.39;59.53
68865;DHT22;55898;52.196;4.420;2022-07-29T01:13:47;19.45;59.37
68865;DHT22;55898;52.196;4.420;2022-07-29T01:16:27;19.37;59.02
68865;DHT22;55898;52.196;4.420;2022-07-29T01:19:10;19.35;59.17
68865;DHT22;55898;52.196;4.420;2022-07-29T01:21:49;19.29;59.65
68865;DHT22;55898;52.196;4.420;2022-07-29T01:27:26;19.26;59.72
68865;DHT22;55898;52.196;4.420;2022-07-29T01:29:58;19.26;59.83
68865;DHT22;55898;52.196;4.420;2022-07-29T01:32:33;19.22;59.83
68865;DHT22;55898;52.196;4.420;2022-07-29T01:37:44;19.11;60.38
68865;DHT22;55898;52.196;4.420;2022-07-29T01:43:10;19.02;60.25
68865;DHT22;55898;52.196;4.420;2022-07-29T01:45:57;18.96;60.54
68865;DHT22;55898;52.196;4.420;2022-07-29T01:48:37;18.95;60.42
68865;DHT22;55898;52.196;4.420;2022-07-29T01:51:10;18.94;60.32
68865;DHT22;55898;52.196;4.420;2022-07-29T01:56:28;18.83;60.84
68865;DHT22;55898;52.196;4.420;2022-07-29T01:58:57;18.83;60.88
68865;DHT22;55898;52.196;4.420;2022-07-29T02:01:25;18.78;60.94
68865;DHT22;55898;52.196;4.420;2022-07-29T02:03:54;18.75;60.98
68865;DHT22;55898;52.196;4.420;2022-07-29T02:06:22;18.72;61.16
68865;DHT22;55898;52.196;4.420;2022-07-29T02:08:50;18.71;61.05
68865;DHT22;55898;52.196;4.420;2022-07-29T02:11:16;18.60;61.36
68865;DHT22;55898;52.196;4.420;2022-07-29T02:13:44;18.48;61.90
68865;DHT22;55898;52.196;4.420;2022-07-29T02:16:11;18.43;61.99
68865;DHT22;55898;52.196;4.420;2022-07-29T02:18:40;18.48;61.90
68865;DHT22;55898;52.196;4.420;2022-07-29T02:21:09;18.47;61.81
68865;DHT22;55898;52.196;4.420;2022-07-29T02:23:38;18.48;61.70
68865;DHT22;55898;52.196;4.420;2022-07-29T02:26:07;18.50;61.68
68865;DHT22;55898;52.196;4.420;2022-07-29T02:28:33;18.50;61.70
68865;DHT22;55898;52.196;4.420;2022-07-29T02:31:02;18.47;61.76
68865;DHT22;55898;52.196;4.420;2022-07-29T02:33:30;18.48;61.93
68865;DHT22;55898;52.196;4.420;2022-07-29T02:35:58;18.43;61.74
68865;DHT22;55898;52.196;4.420;2022-07-29T02:38:27;18.37;62.01
68865;DHT22;55898;52.196;4.420;2022-07-29T02:41:16;18.40;61.88
68865;DHT22;55898;52.196;4.420;2022-07-29T02:43:45;18.40;61.95
68865;DHT22;55898;52.196;4.420;2022-07-29T02:46:16;18.36;61.96
68865;DHT22;55898;52.196;4.420;2022-07-29T02:48:50;18.34;62.05
68865;DHT22;55898;52.196;4.420;2022-07-29T02:51:33;18.33;62.09
68865;DHT22;55898;52.196;4.420;2022-07-29T02:54:05;18.34;61.95
68865;DHT22;55898;52.196;4.420;2022-07-29T02:56:33;18.38;62.19
68865;DHT22;55898;52.196;4.420;2022-07-29T02:59:04;18.41;61.70
68865;DHT22;55898;52.196;4.420;2022-07-29T03:01:33;18.41;61.85
68865;DHT22;55898;52.196;4.420;2022-07-29T03:04:03;18.38;61.99
68865;DHT22;55898;52.196;4.420;2022-07-29T03:06:32;18.34;62.01
68865;DHT22;55898;52.196;4.420;2022-07-29T03:08:58;18.37;62.05
68865;DHT22;55898;52.196;4.420;2022-07-29T03:11:25;18.36;62.08
68865;DHT22;55898;52.196;4.420;2022-07-29T03:13:53;18.34;62.24
68865;DHT22;55898;52.196;4.420;2022-07-29T03:16:20;18.29;62.49
68865;DHT22;55898;52.196;4.420;2022-07-29T03:18:47;18.30;62.45
68865;DHT22;55898;52.196;4.420;2022-07-29T03:21:12;18.27;62.47
68865;DHT22;55898;52.196;4.420;2022-07-29T03:23:43;18.29;62.55
68865;DHT22;55898;52.196;4.420;2022-07-29T03:26:10;18.26;62.39
68865;DHT22;55898;52.196;4.420;2022-07-29T03:28:36;18.26;62.43
68865;DHT22;55898;52.196;4.420;2022-07-29T03:31:01;18.22;62.73
68865;DHT22;55898;52.196;4.420;2022-07-29T03:33:27;18.23;62.66
68865;DHT22;55898;52.196;4.420;2022-07-29T03:35:54;18.23;62.92
68865;DHT22;55898;52.196;4.420;2022-07-29T03:38:25;18.29;62.84
68865;DHT22;55898;52.196;4.420;2022-07-29T03:40:57;18.26;62.81
68865;DHT22;55898;52.196;4.420;2022-07-29T03:43:30;18.26;62.59
68865;DHT22;55898;52.196;4.420;2022-07-29T03:45:59;18.27;62.54
68865;DHT22;55898;52.196;4.420;2022-07-29T03:48:26;18.27;62.61
68865;DHT22;55898;52.196;4.420;2022-07-29T03:50:55;18.33;62.59
68865;DHT22;55898;52.196;4.420;2022-07-29T03:53:21;18.30;62.32
68865;DHT22;55898;52.196;4.420;2022-07-29T03:55:52;18.27;62.47
68865;DHT22;55898;52.196;4.420;2022-07-29T03:58:19;18.16;62.75
68865;DHT22;55898;52.196;4.420;2022-07-29T04:00:46;18.16;62.98
68865;DHT22;55898;52.196;4.420;2022-07-29T04:03:12;18.10;62.94
68865;DHT22;55898;52.196;4.420;2022-07-29T04:05:39;18.10;63.00
68865;DHT22;55898;52.196;4.420;2022-07-29T04:08:05;18.13;63.02
68865;DHT22;55898;52.196;4.420;2022-07-29T04:10:31;18.14;63.00
68865;DHT22;55898;52.196;4.420;2022-07-29T04:12:57;18.16;62.95
68865;DHT22;55898;52.196;4.420;2022-07-29T04:15:22;18.19;62.93
68865;DHT22;55898;52.196;4.420;2022-07-29T04:17:48;18.16;62.91
68865;DHT22;55898;52.196;4.420;2022-07-29T04:20:13;18.13;62.80
68865;DHT22;55898;52.196;4.420;2022-07-29T04:22:40;18.13;62.83
68865;DHT22;55898;52.196;4.420;2022-07-29T04:25:05;18.16;62.97
68865;DHT22;55898;52.196;4.420;2022-07-29T04:27:31;18.16;62.96
68865;DHT22;55898;52.196;4.420;2022-07-29T04:29:57;18.20;62.90
68865;DHT22;55898;52.196;4.420;2022-07-29T04:32:23;18.22;62.64
68865;DHT22;55898;52.196;4.420;2022-07-29T04:34:49;18.22;62.68
68865;DHT22;55898;52.196;4.420;2022-07-29T04:37:14;18.16;62.65
68865;DHT22;55898;52.196;4.420;2022-07-29T04:39:39;18.09;62.90
68865;DHT22;55898;52.196;4.420;2022-07-29T04:42:05;18.12;63.17
68865;DHT22;55898;52.196;4.420;2022-07-29T04:44:31;18.09;63.02
68865;DHT22;55898;52.196;4.420;2022-07-29T04:46:57;18.05;62.91
68865;DHT22;55898;52.196;4.420;2022-07-29T04:49:23;18.05;63.20
68865;DHT22;55898;52.196;4.420;2022-07-29T04:51:48;18.08;63.12
68865;DHT22;55898;52.196;4.420;2022-07-29T04:54:14;18.03;62.96
68865;DHT22;55898;52.196;4.420;2022-07-29T04:56:39;18.02;63.15
68865;DHT22;55898;52.196;4.420;2022-07-29T04:59:05;18.02;63.21
68865;DHT22;55898;52.196;4.420;2022-07-29T05:01:30;18.03;63.01
68865;DHT22;55898;52.196;4.420;2022-07-29T05:03:56;18.08;63.17
68865;DHT22;55898;52.196;4.420;2022-07-29T05:06:21;18.08;63.43
68865;DHT22;55898;52.196;4.420;2022-07-29T05:08:46;18.08;63.42
68865;DHT22;55898;52.196;4.420;2022-07-29T05:11:12;18.13;63.23
68865;DHT22;55898;52.196;4.420;2022-07-29T05:13:37;18.25;62.85
68865;DHT22;55898;52.196;4.420;2022-07-29T05:16:03;18.25;62.87
68865;DHT22;55898;52.196;4.420;2022-07-29T05:18:29;18.33;62.71
68865;DHT22;55898;52.196;4.420;2022-07-29T05:20:54;18.33;62.42
68865;DHT22;55898;52.196;4.420;2022-07-29T05:23:20;18.40;62.42
68865;DHT22;55898;52.196;4.420;2022-07-29T05:25:45;18.38;62.42
68865;DHT22;55898;52.196;4.420;2022-07-29T05:28:11;18.43;62.28
68865;DHT22;55898;52.196;4.420;2022-07-29T05:30:37;18.50;62.22
68865;DHT22;55898;52.196;4.420;2022-07-29T05:33:03;18.56;62.37
68865;DHT22;55898;52.196;4.420;2022-07-29T05:35:28;18.67;62.12
68865;DHT22;55898;52.196;4.420;2022-07-29T05:37:54;18.72;62.08
68865;DHT22;55898;52.196;4.420;2022-07-29T05:40:19;18.75;61.94
68865;DHT22;55898;52.196;4.420;2022-07-29T05:42:45;18.77;61.92
68865;DHT22;55898;52.196;4.420;2022-07-29T05:45:11;18.88;61.79
68865;DHT22;55898;52.196;4.420;2022-07-29T05:47:36;18.98;61.63
68865;DHT22;55898;52.196;4.420;2022-07-29T05:50:02;19.01;61.80
68865;DHT22;55898;52.196;4.420;2022-07-29T05:52:27;19.08;61.44
68865;DHT22;55898;52.196;4.420;2022-07-29T05:54:53;19.05;61.31
68865;DHT22;55898;52.196;4.420;2022-07-29T05:57:21;19.04;61.47
68865;DHT22;55898;52.196;4.420;2022-07-29T05:59:47;19.01;61.63
68865;DHT22;55898;52.196;4.420;2022-07-29T06:02:14;18.94;62.05
68865;DHT22;55898;52.196;4.420;2022-07-29T06:04:40;18.89;62.19
68865;DHT22;55898;52.196;4.420;2022-07-29T06:07:06;18.78;62.93
68865;DHT22;55898;52.196;4.420;2022-07-29T06:09:31;18.85;62.89
68865;DHT22;55898;52.196;4.420;2022-07-29T06:11:57;18.92;62.90
68865;DHT22;55898;52.196;4.420;2022-07-29T06:14:24;18.95;63.41
68865;DHT22;55898;52.196;4.420;2022-07-29T06:16:49;19.11;63.23
68865;DHT22;55898;52.196;4.420;2022-07-29T06:19:15;19.22;63.18
68865;DHT22;55898;52.196;4.420;2022-07-29T06:21:44;19.27;62.76
68865;DHT22;55898;52.196;4.420;2022-07-29T06:24:11;19.36;62.72
68865;DHT22;55898;52.196;4.420;2022-07-29T06:26:41;19.46;62.47
68865;DHT22;55898;52.196;4.420;2022-07-29T06:29:07;19.59;62.06
68865;DHT22;55898;52.196;4.420;2022-07-29T06:31:33;19.66;61.41
68865;DHT22;55898;52.196;4.420;2022-07-29T06:33:59;19.71;61.70
68865;DHT22;55898;52.196;4.420;2022-07-29T06:36:24;19.67;61.36
68865;DHT22;55898;52.196;4.420;2022-07-29T06:38:50;19.75;61.66
68865;DHT22;55898;52.196;4.420;2022-07-29T06:41:16;19.80;61.65
68865;DHT22;55898;52.196;4.420;2022-07-29T06:43:43;19.74;61.05
68865;DHT22;55898;52.196;4.420;2022-07-29T06:46:12;19.77;61.46
68865;DHT22;55898;52.196;4.420;2022-07-29T06:48:39;19.84;61.18
68865;DHT22;55898;52.196;4.420;2022-07-29T06:51:05;19.91;60.55
68865;DHT22;55898;52.196;4.420;2022-07-29T06:53:32;19.91;60.62
68865;DHT22;55898;52.196;4.420;2022-07-29T06:55:59;19.93;61.16
68865;DHT22;55898;52.196;4.420;2022-07-29T06:58:26;19.93;61.44
68865;DHT22;55898;52.196;4.420;2022-07-29T07:00:52;19.97;61.59
68865;DHT22;55898;52.196;4.420;2022-07-29T07:03:18;19.87;61.48
68865;DHT22;55898;52.196;4.420;2022-07-29T07:05:45;19.85;61.92
68865;DHT22;55898;52.196;4.420;2022-07-29T07:08:12;19.87;62.15
68865;DHT22;55898;52.196;4.420;2022-07-29T07:10:39;19.93;61.87
68865;DHT22;55898;52.196;4.420;2022-07-29T07:13:05;19.93;62.11
68865;DHT22;55898;52.196;4.420;2022-07-29T07:15:31;20.05;61.32
68865;DHT22;55898;52.196;4.420;2022-07-29T07:17:57;20.05;62.11
68865;DHT22;55898;52.196;4.420;2022-07-29T07:20:24;20.11;61.86
68865;DHT22;55898;52.196;4.420;2022-07-29T07:22:49;20.07;62.14
68865;DHT22;55898;52.196;4.420;2022-07-29T07:25:15;20.03;61.39
68865;DHT22;55898;52.196;4.420;2022-07-29T07:27:43;19.97;61.73
68865;DHT22;55898;52.196;4.420;2022-07-29T07:30:09;19.90;61.65
68865;DHT22;55898;52.196;4.420;2022-07-29T07:32:35;19.87;62.10
68865;DHT22;55898;52.196;4.420;2022-07-29T07:35:02;19.80;61.89
68865;DHT22;55898;52.196;4.420;2022-07-29T07:37:28;19.78;62.28
68865;DHT22;55898;52.196;4.420;2022-07-29T07:39:54;19.64;62.18
68865;DHT22;55898;52.196;4.420;2022-07-29T07:42:19;19.60;62.76
68865;DHT22;55898;52.196;4.420;2022-07-29T07:44:45;19.64;62.58
68865;DHT22;55898;52.196;4.420;2022-07-29T07:47:12;19.73;61.68
68865;DHT22;55898;52.196;4.420;2022-07-29T07:49:38;19.88;61.20
68865;DHT22;55898;52.196;4.420;2022-07-29T07:52:04;19.94;60.82
68865;DHT22;55898;52.196;4.420;2022-07-29T07:54:29;19.98;60.81
68865;DHT22;55898;52.196;4.420;2022-07-29T07:56:56;20.11;59.99
68865;DHT22;55898;52.196;4.420;2022-07-29T07:59:21;20.21;60.12
68865;DHT22;55898;52.196;4.420;2022-07-29T08:01:47;20.32;60.01
68865;DHT22;55898;52.196;4.420;2022-07-29T08:04:12;20.48;59.88
68865;DHT22;55898;52.196;4.420;2022-07-29T08:06:38;20.60;60.12
68865;DHT22;55898;52.196;4.420;2022-07-29T08:09:04;20.65;60.13
68865;DHT22;55898;52.196;4.420;2022-07-29T08:11:30;20.72;59.55
68865;DHT22;55898;52.196;4.420;2022-07-29T08:13:56;20.87;59.52
68865;DHT22;55898;52.196;4.420;2022-07-29T08:16:22;20.99;59.17
68865;DHT22;55898;52.196;4.420;2022-07-29T08:18:48;21.14;58.98
68865;DHT22;55898;52.196;4.420;2022-07-29T08:21:14;21.23;57.53
68865;DHT22;55898;52.196;4.420;2022-07-29T08:23:41;21.31;57.51
68865;DHT22;55898;52.196;4.420;2022-07-29T08:26:13;21.47;57.55
68865;DHT22;55898;52.196;4.420;2022-07-29T08:28:44;21.55;57.52
68865;DHT22;55898;52.196;4.420;2022-07-29T08:31:11;21.65;58.25
68865;DHT22;55898;52.196;4.420;2022-07-29T08:33:36;21.71;57.32
68865;DHT22;55898;52.196;4.420;2022-07-29T08:36:03;21.74;56.62
68865;DHT22;55898;52.196;4.420;2022-07-29T08:38:28;21.88;56.77
68865;DHT22;55898;52.196;4.420;2022-07-29T08:40:54;21.90;55.61
68865;DHT22;55898;52.196;4.420;2022-07-29T08:43:20;22.07;56.15
68865;DHT22;55898;52.196;4.420;2022-07-29T08:45:48;22.18;54.68
68865;DHT22;55898;52.196;4.420;2022-07-29T08:48:17;22.17;54.25
68865;DHT22;55898;52.196;4.420;2022-07-29T08:50:44;22.32;54.41
68865;DHT22;55898;52.196;4.420;2022-07-29T08:53:16;22.36;53.59
68865;DHT22;55898;52.196;4.420;2022-07-29T08:55:49;22.27;53.82
68865;DHT22;55898;52.196;4.420;2022-07-29T08:58:16;22.36;53.71
68865;DHT22;55898;52.196;4.420;2022-07-29T09:00:45;22.43;54.48
68865;DHT22;55898;52.196;4.420;2022-07-29T09:03:17;22.54;53.94
68865;DHT22;55898;52.196;4.420;2022-07-29T09:05:45;22.57;54.01
68865;DHT22;55898;52.196;4.420;2022-07-29T09:08:12;22.63;54.25
68865;DHT22;55898;52.196;4.420;2022-07-29T09:10:38;22.55;54.42
68865;DHT22;55898;52.196;4.420;2022-07-29T09:13:04;22.53;53.84
68865;DHT22;55898;52.196;4.420;2022-07-29T09:15:30;22.40;54.02
68865;DHT22;55898;52.196;4.420;2022-07-29T09:17:56;22.39;54.40
68865;DHT22;55898;52.196;4.420;2022-07-29T09:20:24;22.39;54.66
68865;DHT22;55898;52.196;4.420;2022-07-29T09:22:52;22.34;55.33
68865;DHT22;55898;52.196;4.420;2022-07-29T09:25:36;22.30;55.99
68865;DHT22;55898;52.196;4.420;2022-07-29T09:28:10;22.33;56.52
68865;DHT22;55898;52.196;4.420;2022-07-29T09:30:50;22.29;56.67
68865;DHT22;55898;52.196;4.420;2022-07-29T09:33:16;22.24;57.15
68865;DHT22;55898;52.196;4.420;2022-07-29T09:35:42;22.26;57.47
68865;DHT22;55898;52.196;4.420;2022-07-29T09:38:12;22.17;57.55
68865;DHT22;55898;52.196;4.420;2022-07-29T09:40:38;22.17;57.87
68865;DHT22;55898;52.196;4.420;2022-07-29T09:43:13;22.12;58.10
68865;DHT22;55898;52.196;4.420;2022-07-29T09:45:39;22.16;58.05
68865;DHT22;55898;52.196;4.420;2022-07-29T09:48:16;22.20;58.25
68865;DHT22;55898;52.196;4.420;2022-07-29T09:50:44;22.30;57.43
68865;DHT22;55898;52.196;4.420;2022-07-29T09:53:10;22.36;57.48
68865;DHT22;55898;52.196;4.420;2022-07-29T09:55:48;22.36;57.57
68865;DHT22;55898;52.196;4.420;2022-07-29T09:58:19;22.41;55.75
68865;DHT22;55898;52.196;4.420;2022-07-29T10:00:46;22.44;56.99
68865;DHT22;55898;52.196;4.420;2022-07-29T10:03:13;22.44;57.53
68865;DHT22;55898;52.196;4.420;2022-07-29T10:05:39;22.46;56.90
68865;DHT22;55898;52.196;4.420;2022-07-29T10:08:07;22.40;56.50
68865;DHT22;55898;52.196;4.420;2022-07-29T10:10:39;22.44;56.92
68865;DHT22;55898;52.196;4.420;2022-07-29T10:13:08;22.46;56.57
68865;DHT22;55898;52.196;4.420;2022-07-29T10:15:36;22.47;55.99
68865;DHT22;55898;52.196;4.420;2022-07-29T10:18:04;22.47;56.43
68865;DHT22;55898;52.196;4.420;2022-07-29T10:20:31;22.47;56.88
68865;DHT22;55898;52.196;4.420;2022-07-29T10:22:57;22.47;57.37
68865;DHT22;55898;52.196;4.420;2022-07-29T10:25:24;22.65;56.67
68865;DHT22;55898;52.196;4.420;2022-07-29T10:27:50;22.65;55.17
68865;DHT22;55898;52.196;4.420;2022-07-29T10:30:18;22.65;55.40
68865;DHT22;55898;52.196;4.420;2022-07-29T10:41:24;22.68;55.40
68865;DHT22;55898;52.196;4.420;2022-07-29T10:44:08;22.92;56.03
68865;DHT22;55898;52.196;4.420;2022-07-29T10:46:36;23.04;54.64
68865;DHT22;55898;52.196;4.420;2022-07-29T10:49:23;23.12;54.65
68865;DHT22;55898;52.196;4.420;2022-07-29T10:51:58;23.19;54.32
68865;DHT22;55898;52.196;4.420;2022-07-29T10:59:40;23.47;54.08
68865;DHT22;55898;52.196;4.420;2022-07-29T11:05:18;23.50;52.63
68865;DHT22;55898;52.196;4.420;2022-07-29T11:10:38;23.33;54.30
68865;DHT22;55898;52.196;4.420;2022-07-29T11:13:04;23.42;53.75
68865;DHT22;55898;52.196;4.420;2022-07-29T11:15:56;23.54;54.55
68865;DHT22;55898;52.196;4.420;2022-07-29T11:18:22;23.70;53.40
68865;DHT22;55898;52.196;4.420;2022-07-29T11:20:50;23.85;53.14
68865;DHT22;55898;52.196;4.420;2022-07-29T11:23:24;23.93;52.51
68865;DHT22;55898;52.196;4.420;2022-07-29T11:31:38;24.39;50.72
68865;DHT22;55898;52.196;4.420;2022-07-29T11:39:30;24.82;51.24
68865;DHT22;55898;52.196;4.420;2022-07-29T11:50:14;27.70;43.72
68865;DHT22;55898;52.196;4.420;2022-07-29T11:52:46;28.65;41.96
68865;DHT22;55898;52.196;4.420;2022-07-29T11:55:17;29.85;39.96
68865;DHT22;55898;52.196;4.420;2022-07-29T12:00:22;31.74;35.61
68865;DHT22;55898;52.196;4.420;2022-07-29T12:05:13;32.13;33.81
68865;DHT22;55898;52.196;4.420;2022-07-29T12:07:39;32.34;34.47
68865;DHT22;55898;52.196;4.420;2022-07-29T12:10:06;32.95;33.85
68865;DHT22;55898;52.196;4.420;2022-07-29T12:12:34;33.27;33.73
68865;DHT22;55898;52.196;4.420;2022-07-29T12:15:17;33.30;32.75
68865;DHT22;55898;52.196;4.420;2022-07-29T12:17:45;33.58;32.95
68865;DHT22;55898;52.196;4.420;2022-07-29T12:20:11;34.08;32.26
68865;DHT22;55898;52.196;4.420;2022-07-29T12:22:40;34.26;31.82
68865;DHT22;55898;52.196;4.420;2022-07-29T12:25:08;34.20;31.60
68865;DHT22;55898;52.196;4.420;2022-07-29T12:27:35;34.50;31.62
68865;DHT22;55898;52.196;4.420;2022-07-29T12:30:07;34.91;31.16
68865;DHT22;55898;52.196;4.420;2022-07-29T12:32:38;34.90;30.61
68865;DHT22;55898;52.196;4.420;2022-07-29T12:37:36;34.93;30.83
68865;DHT22;55898;52.196;4.420;2022-07-29T12:40:05;34.76;31.46
68865;DHT22;55898;52.196;4.420;2022-07-29T12:42:31;35.15;30.41
68865;DHT22;55898;52.196;4.420;2022-07-29T12:44:57;35.70;29.72
68865;DHT22;55898;52.196;4.420;2022-07-29T12:47:23;35.49;29.47
68865;DHT22;55898;52.196;4.420;2022-07-29T12:49:50;35.56;30.21
68865;DHT22;55898;52.196;4.420;2022-07-29T12:52:31;35.69;28.94
68865;DHT22;55898;52.196;4.420;2022-07-29T12:54:57;35.90;29.93
68865;DHT22;55898;52.196;4.420;2022-07-29T12:57:23;36.15;29.39
68865;DHT22;55898;52.196;4.420;2022-07-29T13:00:08;35.97;29.43
68865;DHT22;55898;52.196;4.420;2022-07-29T13:02:39;35.97;30.04
68865;DHT22;55898;52.196;4.420;2022-07-29T13:05:06;35.94;29.60
68865;DHT22;55898;52.196;4.420;2022-07-29T13:07:34;36.34;29.14
68865;DHT22;55898;52.196;4.420;2022-07-29T13:10:11;36.54;28.09
68865;DHT22;55898;52.196;4.420;2022-07-29T13:39:40;37.50;26.81
68865;DHT22;55898;52.196;4.420;2022-07-29T13:42:07;37.52;27.94
68865;DHT22;55898;52.196;4.420;2022-07-29T13:44:34;37.63;28.23
68865;DHT22;55898;52.196;4.420;2022-07-29T13:46:59;37.81;26.93
68865;DHT22;55898;52.196;4.420;2022-07-29T13:49:25;38.25;27.68
68865;DHT22;55898;52.196;4.420;2022-07-29T13:51:51;38.70;27.32
68865;DHT22;55898;52.196;4.420;2022-07-29T13:54:16;38.84;26.32
68865;DHT22;55898;52.196;4.420;2022-07-29T13:56:42;38.79;26.93
68865;DHT22;55898;52.196;4.420;2022-07-29T13:59:07;38.69;26.50
68865;DHT22;55898;52.196;4.420;2022-07-29T14:01:34;38.95;26.23
68865;DHT22;55898;52.196;4.420;2022-07-29T14:04:00;39.11;26.92
68865;DHT22;55898;52.196;4.420;2022-07-29T14:06:25;38.90;27.11
68865;DHT22;55898;52.196;4.420;2022-07-29T14:08:51;38.83;26.59
68865;DHT22;55898;52.196;4.420;2022-07-29T14:11:16;39.28;27.11
68865;DHT22;55898;52.196;4.420;2022-07-29T14:13:42;39.69;26.35
68865;DHT22;55898;52.196;4.420;2022-07-29T14:16:07;39.61;26.35
68865;DHT22;55898;52.196;4.420;2022-07-29T14:18:33;40.05;26.12
68865;DHT22;55898;52.196;4.420;2022-07-29T14:20:59;40.19;24.93
68865;DHT22;55898;52.196;4.420;2022-07-29T14:23:24;39.95;25.64
68865;DHT22;55898;52.196;4.420;2022-07-29T14:25:50;39.43;26.04
68865;DHT22;55898;52.196;4.420;2022-07-29T14:28:15;39.48;26.84
68865;DHT22;55898;52.196;4.420;2022-07-29T14:30:41;39.75;25.25
68865;DHT22;55898;52.196;4.420;2022-07-29T14:33:06;39.57;25.86
68865;DHT22;55898;52.196;4.420;2022-07-29T14:35:33;38.99;26.99
68865;DHT22;55898;52.196;4.420;2022-07-29T14:37:58;39.20;26.68
68865;DHT22;55898;52.196;4.420;2022-07-29T14:40:24;39.14;26.69
68865;DHT22;55898;52.196;4.420;2022-07-29T14:42:51;39.48;26.38
68865;DHT22;55898;52.196;4.420;2022-07-29T14:45:17;38.92;27.56
68865;DHT22;55898;52.196;4.420;2022-07-29T14:47:42;38.92;27.78
68865;DHT22;55898;52.196;4.420;2022-07-29T14:50:09;38.47;28.15
68865;DHT22;55898;52.196;4.420;2022-07-29T14:52:35;37.53;28.07
68865;DHT22;55898;52.196;4.420;2022-07-29T14:55:01;36.63;30.07
68865;DHT22;55898;52.196;4.420;2022-07-29T14:57:26;36.04;31.01
68865;DHT22;55898;52.196;4.420;2022-07-29T14:59:52;35.72;31.80
68865;DHT22;55898;52.196;4.420;2022-07-29T15:02:17;35.28;31.11
68865;DHT22;55898;52.196;4.420;2022-07-29T15:04:43;34.95;33.14
68865;DHT22;55898;52.196;4.420;2022-07-29T15:07:10;34.74;33.60
68865;DHT22;55898;52.196;4.420;2022-07-29T15:09:36;34.91;32.51
68865;DHT22;55898;52.196;4.420;2022-07-29T15:12:01;35.05;32.52
68865;DHT22;55898;52.196;4.420;2022-07-29T15:14:28;34.88;33.02
68865;DHT22;55898;52.196;4.420;2022-07-29T15:16:53;34.52;34.08
68865;DHT22;55898;52.196;4.420;2022-07-29T15:19:19;33.98;34.18
68865;DHT22;55898;52.196;4.420;2022-07-29T15:21:45;33.58;35.47
68865;DHT22;55898;52.196;4.420;2022-07-29T15:24:10;33.55;35.93
68865;DHT22;55898;52.196;4.420;2022-07-29T15:26:36;33.85;35.15
68865;DHT22;55898;52.196;4.420;2022-07-29T15:29:02;34.02;34.72
68865;DHT22;55898;52.196;4.420;2022-07-29T15:31:27;34.05;34.78
68865;DHT22;55898;52.196;4.420;2022-07-29T15:33:53;34.08;34.64
68865;DHT22;55898;52.196;4.420;2022-07-29T15:36:18;34.06;34.84
68865;DHT22;55898;52.196;4.420;2022-07-29T15:38:44;33.97;34.71
68865;DHT22;55898;52.196;4.420;2022-07-29T15:41:13;33.79;35.22
68865;DHT22;55898;52.196;4.420;2022-07-29T15:43:43;33.58;35.58
68865;DHT22;55898;52.196;4.420;2022-07-29T15:46:12;33.27;35.71
68865;DHT22;55898;52.196;4.420;2022-07-29T15:48:56;33.03;36.01
68865;DHT22;55898;52.196;4.420;2022-07-29T15:51:22;32.44;36.10
68865;DHT22;55898;52.196;4.420;2022-07-29T15:53:47;31.97;38.06
68865;DHT22;55898;52.196;4.420;2022-07-29T15:56:13;31.49;38.84
68865;DHT22;55898;52.196;4.420;2022-07-29T15:58:38;31.19;38.59
68865;DHT22;55898;52.196;4.420;2022-07-29T16:01:04;30.89;40.43
68865;DHT22;55898;52.196;4.420;2022-07-29T16:03:29;30.70;40.96
68865;DHT22;55898;52.196;4.420;2022-07-29T16:05:55;30.54;42.30
68865;DHT22;55898;52.196;4.420;2022-07-29T16:08:21;30.37;42.50
68865;DHT22;55898;52.196;4.420;2022-07-29T16:10:46;30.12;43.53
68865;DHT22;55898;52.196;4.420;2022-07-29T16:13:12;29.95;43.60
68865;DHT22;55898;52.196;4.420;2022-07-29T16:15:37;29.83;44.21
68865;DHT22;55898;52.196;4.420;2022-07-29T16:18:03;29.82;43.88
68865;DHT22;55898;52.196;4.420;2022-07-29T16:20:28;29.76;44.18
68865;DHT22;55898;52.196;4.420;2022-07-29T16:22:54;29.57;44.61
68865;DHT22;55898;52.196;4.420;2022-07-29T16:25:20;29.28;45.35
68865;DHT22;55898;52.196;4.420;2022-07-29T16:27:45;29.02;46.12
68865;DHT22;55898;52.196;4.420;2022-07-29T16:30:11;28.97;46.34
68865;DHT22;55898;52.196;4.420;2022-07-29T16:32:36;29.08;48.89
68865;DHT22;55898;52.196;4.420;2022-07-29T16:35:02;28.90;49.13
68865;DHT22;55898;52.196;4.420;2022-07-29T16:37:29;28.75;48.97
68865;DHT22;55898;52.196;4.420;2022-07-29T16:39:59;28.52;47.85
68865;DHT22;55898;52.196;4.420;2022-07-29T16:42:25;28.36;48.08
68865;DHT22;55898;52.196;4.420;2022-07-29T16:44:50;28.36;47.61
68865;DHT22;55898;52.196;4.420;2022-07-29T16:47:16;28.27;47.76
68865;DHT22;55898;52.196;4.420;2022-07-29T16:49:41;28.05;47.45
68865;DHT22;55898;52.196;4.420;2022-07-29T16:52:07;27.84;48.05
68865;DHT22;55898;52.196;4.420;2022-07-29T16:54:32;27.69;48.87
68865;DHT22;55898;52.196;4.420;2022-07-29T16:56:58;27.57;49.86